Time;durP1;ratioP1;P1;durP2;ratioP2;P2;SDS_P1;SDS_P2;PMS_P1;PMS_P2;Temp;Humidity;BMP_temperature;BMP_pressure;BME280_temperature;BME280_humidity;BME280_pressure;Samples;Min_cycle;Max_cycle;Signal;HPM_P1;HPM_P2
2022/09/04 00:01:56;;;;;;;2.30;1.53;;;16.60;99.90;;;;;;4931075;29;20529;-74
2022/09/04 00:04:53;;;;;;;2.47;1.20;;;16.60;99.90;;;;;;4929735;28;21012;-74
2022/09/04 00:07:59;;;;;;;1.20;1.10;;;16.50;99.90;;;;;;4929766;29;20571;-74
2022/09/04 00:10:54;;;;;;;1.57;1.33;;;16.50;99.90;;;;;;4927518;29;20599;-74
2022/09/04 00:13:45;;;;;;;1.43;1.33;;;16.50;99.90;;;;;;4930169;29;20600;-74
2022/09/04 00:16:41;;;;;;;1.40;1.30;;;16.50;99.90;;;;;;4932245;29;20688;-74
2022/09/04 00:19:35;;;;;;;1.63;1.53;;;16.40;99.90;;;;;;4926469;29;20591;-74
2022/09/04 00:22:33;;;;;;;1.30;1.20;;;16.40;99.90;;;;;;4929585;29;20575;-74
2022/09/04 00:25:29;;;;;;;1.57;1.17;;;16.40;99.90;;;;;;4930561;29;22005;-74
2022/09/04 00:28:28;;;;;;;1.90;1.70;;;16.40;99.90;;;;;;4932229;29;20452;-74
2022/09/04 00:31:25;;;;;;;3.00;1.63;;;16.40;99.90;;;;;;4931180;29;20524;-74
2022/09/04 00:34:38;;;;;;;1.30;1.10;;;16.30;99.90;;;;;;4930072;29;20604;-74
2022/09/04 00:37:32;;;;;;;2.40;1.40;;;16.30;99.90;;;;;;4930938;29;20628;-74
2022/09/04 00:40:26;;;;;;;1.50;1.40;;;16.30;99.90;;;;;;4932265;29;20499;-74
2022/09/04 00:43:48;;;;;;;2.03;1.50;;;16.30;99.90;;;;;;4931618;29;20460;-73
2022/09/04 00:47:02;;;;;;;1.50;1.40;;;16.30;99.90;;;;;;4928825;29;21011;-74
2022/09/04 00:50:28;;;;;;;4.23;1.43;;;16.20;99.90;;;;;;4931426;29;20534;-74
2022/09/04 00:53:45;;;;;;;3.33;1.70;;;16.20;99.90;;;;;;4931655;28;20512;-73
2022/09/04 00:57:04;;;;;;;1.40;1.30;;;16.20;99.90;;;;;;4930648;29;20529;-74
2022/09/04 01:00:11;;;;;;;1.43;1.33;;;16.20;99.90;;;;;;4927915;28;20462;-74
2022/09/04 01:03:22;;;;;;;1.33;1.23;;;16.10;99.90;;;;;;4924009;29;20964;-73
2022/09/04 01:06:24;;;;;;;2.63;1.70;;;16.10;99.90;;;;;;4925513;29;20495;-73
2022/09/04 01:09:51;;;;;;;1.50;1.40;;;16.10;99.90;;;;;;4924545;29;20555;-72
2022/09/04 01:12:45;;;;;;;3.03;1.40;;;16.10;99.90;;;;;;4927400;28;20508;-73
2022/09/04 01:15:40;;;;;;;2.13;1.83;;;16.10;99.90;;;;;;4930286;29;20564;-72
2022/09/04 01:18:37;;;;;;;3.00;1.70;;;16.10;99.90;;;;;;4928645;29;20460;-73
2022/09/04 01:21:59;;;;;;;2.60;1.40;;;16.00;99.90;;;;;;4926041;29;21055;-73
2022/09/04 01:25:01;;;;;;;2.40;1.37;;;16.00;99.90;;;;;;4926126;29;20876;-72
2022/09/04 01:27:58;;;;;;;2.13;1.30;;;16.00;99.90;;;;;;4929015;29;20481;-73
2022/09/04 01:30:54;;;;;;;2.67;1.43;;;16.00;99.90;;;;;;4928554;29;20843;-72
2022/09/04 01:33:53;;;;;;;1.87;1.47;;;16.00;99.90;;;;;;4925932;29;20542;-72
2022/09/04 01:36:49;;;;;;;1.50;1.40;;;16.00;99.90;;;;;;4930089;29;20586;-72
2022/09/04 01:39:39;;;;;;;1.37;1.27;;;16.00;99.90;;;;;;4927676;29;20968;-73
2022/09/04 01:42:39;;;;;;;1.50;1.30;;;16.00;99.90;;;;;;4928465;29;21323;-72
2022/09/04 01:45:43;;;;;;;1.47;1.37;;;15.90;99.90;;;;;;4931194;29;20539;-72
2022/09/04 01:48:39;;;;;;;1.80;1.70;;;15.90;99.90;;;;;;4931974;29;21084;-73
2022/09/04 01:51:38;;;;;;;1.40;1.30;;;15.90;99.90;;;;;;4929554;29;21008;-72
2022/09/04 01:54:42;;;;;;;1.73;1.53;;;15.90;99.90;;;;;;4930283;29;20547;-73
2022/09/04 01:57:44;;;;;;;1.57;1.40;;;15.90;99.90;;;;;;4931165;28;21619;-73
2022/09/04 02:00:41;;;;;;;3.70;1.70;;;15.90;99.90;;;;;;4927720;28;20559;-73
2022/09/04 02:03:39;;;;;;;1.30;1.20;;;15.90;99.90;;;;;;4925488;29;20965;-72
2022/09/04 02:06:34;;;;;;;1.60;1.43;;;15.80;99.90;;;;;;4923801;29;20574;-73
2022/09/04 02:09:33;;;;;;;1.80;1.70;;;15.80;99.90;;;;;;4924480;29;20527;-73
2022/09/04 02:12:34;;;;;;;1.60;1.40;;;15.80;99.90;;;;;;4925234;29;20484;-73
2022/09/04 02:15:32;;;;;;;1.63;1.30;;;15.80;99.90;;;;;;4926281;29;21211;-72
2022/09/04 02:18:34;;;;;;;3.03;1.30;;;15.80;99.90;;;;;;4928970;29;20460;-72
2022/09/04 02:21:31;;;;;;;1.70;1.60;;;15.80;99.90;;;;;;4929751;28;20607;-72
2022/09/04 02:24:25;;;;;;;1.67;1.57;;;15.80;99.90;;;;;;4929880;29;20486;-73
2022/09/04 02:27:21;;;;;;;1.70;1.60;;;15.80;99.90;;;;;;4930228;29;20963;-72
2022/09/04 02:30:12;;;;;;;1.60;1.30;;;15.80;99.90;;;;;;4929572;29;20961;-73
2022/09/04 02:33:07;;;;;;;1.50;1.40;;;15.80;99.90;;;;;;4927181;29;20483;-73
2022/09/04 02:36:05;;;;;;;2.13;1.60;;;15.80;99.90;;;;;;4930868;29;20577;-72
2022/09/04 02:39:02;;;;;;;1.50;1.40;;;15.70;99.90;;;;;;4933800;29;21070;-72
2022/09/04 02:41:59;;;;;;;3.00;1.73;;;15.70;99.90;;;;;;4930615;29;20452;-73
2022/09/04 02:44:58;;;;;;;1.50;1.40;;;15.70;99.90;;;;;;4935429;28;20952;-72
2022/09/04 02:47:52;;;;;;;1.43;1.33;;;15.70;99.90;;;;;;4933683;29;20554;-72
2022/09/04 02:50:56;;;;;;;1.67;1.50;;;15.70;99.90;;;;;;4932227;28;20527;-73
2022/09/04 02:53:59;;;;;;;2.03;1.53;;;15.70;99.90;;;;;;4934191;29;20549;-72
2022/09/04 02:56:57;;;;;;;1.50;1.40;;;15.70;99.90;;;;;;4934249;28;20598;-72
2022/09/04 02:59:58;;;;;;;1.90;1.47;;;15.60;99.90;;;;;;4932818;29;20459;-72
2022/09/04 03:02:52;;;;;;;1.30;1.20;;;15.60;99.90;;;;;;4930566;29;20487;-72
2022/09/04 03:05:49;;;;;;;1.53;1.43;;;15.60;99.90;;;;;;4934797;28;20494;-72
2022/09/04 03:08:43;;;;;;;1.80;1.70;;;15.60;99.90;;;;;;4932075;29;20451;-72
2022/09/04 03:11:39;;;;;;;2.30;1.47;;;15.50;99.90;;;;;;4931791;29;20464;-73
2022/09/04 03:14:34;;;;;;;1.57;1.47;;;15.50;99.90;;;;;;4932581;29;20554;-72
2022/09/04 03:17:29;;;;;;;2.50;1.50;;;15.50;99.90;;;;;;4928499;29;20508;-72
2022/09/04 03:20:22;;;;;;;2.50;1.50;;;15.50;99.90;;;;;;4929322;29;20539;-73
2022/09/04 03:23:19;;;;;;;1.97;1.70;;;15.50;99.90;;;;;;4930279;29;20600;-72
2022/09/04 03:26:21;;;;;;;2.13;1.93;;;15.50;99.90;;;;;;4929585;28;20523;-73
2022/09/04 03:29:20;;;;;;;1.53;1.40;;;15.40;99.90;;;;;;4930628;29;20872;-73
2022/09/04 03:32:17;;;;;;;1.40;1.30;;;15.40;99.90;;;;;;4929935;29;20563;-73
2022/09/04 03:35:14;;;;;;;2.27;1.60;;;15.40;99.90;;;;;;4931626;29;20538;-72
2022/09/04 03:38:17;;;;;;;1.53;1.43;;;15.30;99.90;;;;;;4929674;29;20448;-72
2022/09/04 03:41:11;;;;;;;2.90;1.57;;;15.30;99.90;;;;;;4925106;29;20459;-73
2022/09/04 03:44:19;;;;;;;2.03;1.70;;;15.30;99.90;;;;;;4929428;29;20607;-72
2022/09/04 03:47:19;;;;;;;2.10;1.60;;;15.20;99.90;;;;;;4927135;29;20487;-72
2022/09/04 03:50:18;;;;;;;4.40;1.67;;;15.20;99.90;;;;;;4930517;29;20448;-73
2022/09/04 03:53:23;;;;;;;2.00;1.80;;;15.20;99.90;;;;;;4928522;29;20494;-72
2022/09/04 03:56:44;;;;;;;1.60;1.50;;;15.20;99.90;;;;;;4930011;29;20511;-72
2022/09/04 03:59:46;;;;;;;1.83;1.73;;;15.10;99.90;;;;;;4930212;29;20599;-72
2022/09/04 04:02:50;;;;;;;1.60;1.50;;;15.10;99.90;;;;;;4927834;29;20541;-72
2022/09/04 04:05:44;;;;;;;1.57;1.40;;;15.10;99.90;;;;;;4929247;29;20456;-73
2022/09/04 04:08:55;;;;;;;3.27;1.80;;;15.00;99.90;;;;;;4929007;29;20456;-72
2022/09/04 04:12:11;;;;;;;1.70;1.60;;;15.00;99.90;;;;;;4930445;29;21267;-72
2022/09/04 04:15:13;;;;;;;1.63;1.50;;;15.00;99.90;;;;;;4931829;29;20567;-72
2022/09/04 04:18:20;;;;;;;1.60;1.50;;;15.00;99.90;;;;;;4926579;29;20544;-72
2022/09/04 04:21:18;;;;;;;2.53;1.57;;;14.90;99.90;;;;;;4928952;28;21168;-72
2022/09/04 04:24:27;;;;;;;1.83;1.70;;;14.90;99.90;;;;;;4928031;29;20949;-72
2022/09/04 04:27:28;;;;;;;2.30;1.53;;;14.90;99.90;;;;;;4928992;29;20495;-73
2022/09/04 04:30:19;;;;;;;2.80;1.67;;;14.80;99.90;;;;;;4926340;29;20443;-72
2022/09/04 04:33:34;;;;;;;2.13;1.93;;;14.80;99.90;;;;;;4929707;29;21095;-73
2022/09/04 04:36:35;;;;;;;2.70;1.63;;;14.80;99.90;;;;;;4928092;28;20924;-72
2022/09/04 04:39:31;;;;;;;1.80;1.70;;;14.70;99.90;;;;;;4928310;28;20488;-73
2022/09/04 04:42:24;;;;;;;1.70;1.60;;;14.70;99.90;;;;;;4930274;29;20452;-73
2022/09/04 04:45:53;;;;;;;2.80;1.80;;;14.60;99.90;;;;;;4930758;29;20587;-72
2022/09/04 04:49:10;;;;;;;1.80;1.70;;;14.60;99.90;;;;;;4931350;29;21043;-72
2022/09/04 04:52:20;;;;;;;1.70;1.60;;;14.70;99.90;;;;;;4929124;28;20550;-72
2022/09/04 04:55:20;;;;;;;1.90;1.80;;;14.60;99.90;;;;;;4931126;29;20448;-72
2022/09/04 04:58:43;;;;;;;1.47;1.37;;;14.60;99.90;;;;;;4931951;29;20543;-73
2022/09/04 05:01:47;;;;;;;1.90;1.60;;;14.60;99.90;;;;;;4930169;29;20488;-72
2022/09/04 05:04:45;;;;;;;3.37;1.87;;;14.50;99.90;;;;;;4925153;28;20828;-72
2022/09/04 05:07:40;;;;;;;2.57;1.80;;;14.50;99.90;;;;;;4926369;29;20507;-72
2022/09/04 05:10:35;;;;;;;3.57;1.83;;;14.60;99.90;;;;;;4929873;29;20539;-72
2022/09/04 05:13:31;;;;;;;3.23;2.07;;;14.60;99.90;;;;;;4929070;29;20490;-73
2022/09/04 05:16:28;;;;;;;2.13;1.77;;;14.60;99.90;;;;;;4931113;29;20479;-73
2022/09/04 05:19:29;;;;;;;1.80;1.70;;;14.60;99.90;;;;;;4929928;29;20452;-73
2022/09/04 05:22:23;;;;;;;1.87;1.77;;;14.60;99.90;;;;;;4931059;29;20503;-73
2022/09/04 05:25:18;;;;;;;2.63;1.90;;;14.60;99.90;;;;;;4928214;29;20456;-73
2022/09/04 05:28:19;;;;;;;1.93;1.77;;;14.60;99.90;;;;;;4929958;29;20538;-73
2022/09/04 05:31:16;;;;;;;2.10;1.70;;;14.70;99.90;;;;;;4926095;29;20533;-72
2022/09/04 05:34:12;;;;;;;2.33;1.97;;;14.70;99.90;;;;;;4929692;29;21030;-73
2022/09/04 05:37:12;;;;;;;2.87;1.80;;;14.70;99.90;;;;;;4929840;29;20619;-73
2022/09/04 05:40:09;;;;;;;3.10;2.10;;;14.80;99.90;;;;;;4929282;28;20944;-73
2022/09/04 05:43:09;;;;;;;2.10;1.50;;;14.80;99.90;;;;;;4927061;29;20533;-73
2022/09/04 05:46:05;;;;;;;1.90;1.80;;;14.80;99.90;;;;;;4930637;29;20567;-73
2022/09/04 05:49:02;;;;;;;2.40;2.00;;;14.90;99.90;;;;;;4928157;29;20456;-72
2022/09/04 05:52:10;;;;;;;1.80;1.70;;;14.90;99.90;;;;;;4924849;29;20504;-73
2022/09/04 05:55:30;;;;;;;1.87;1.77;;;14.90;99.90;;;;;;4922996;29;20550;-73
2022/09/04 05:58:33;;;;;;;2.10;1.90;;;15.00;99.90;;;;;;4924465;29;20542;-72
2022/09/04 06:01:49;;;;;;;1.90;1.80;;;15.00;99.90;;;;;;4919269;29;20950;-73
2022/09/04 06:05:12;;;;;;;2.43;1.90;;;15.10;99.90;;;;;;4906230;29;20852;-74
2022/09/04 06:08:13;;;;;;;2.20;2.00;;;15.10;99.90;;;;;;4924231;29;20518;-73
2022/09/04 06:11:24;;;;;;;2.07;1.87;;;15.20;99.90;;;;;;4914826;29;20464;-73
2022/09/04 06:14:34;;;;;;;1.93;1.83;;;15.20;99.90;;;;;;4920732;29;20479;-73
2022/09/04 06:17:35;;;;;;;2.13;1.80;;;15.20;99.90;;;;;;4921722;29;20557;-73
2022/09/04 06:20:39;;;;;;;2.33;1.90;;;15.30;99.90;;;;;;4922883;29;20540;-73
2022/09/04 06:23:49;;;;;;;3.93;1.90;;;15.30;99.90;;;;;;4917630;29;20608;-73
2022/09/04 06:26:55;;;;;;;2.63;2.10;;;15.30;99.90;;;;;;4924492;29;20551;-74
2022/09/04 06:29:58;;;;;;;2.17;1.90;;;15.30;99.90;;;;;;4922892;29;21088;-73
2022/09/04 06:33:15;;;;;;;2.67;1.70;;;15.40;99.90;;;;;;4925307;29;20987;-73
2022/09/04 06:36:34;;;;;;;2.37;2.17;;;15.40;99.90;;;;;;4922421;28;21055;-73
2022/09/04 06:40:06;;;;;;;1.97;1.87;;;15.50;99.90;;;;;;4924697;29;20770;-73
2022/09/04 06:43:11;;;;;;;3.00;1.80;;;15.60;99.90;;;;;;4906752;29;20455;-72
2022/09/04 06:46:09;;;;;;;1.63;1.40;;;15.60;99.90;;;;;;4919099;28;20566;-73
2022/09/04 06:49:04;;;;;;;1.60;1.50;;;15.70;99.90;;;;;;4921515;29;20460;-73
2022/09/04 06:52:08;;;;;;;1.90;1.67;;;15.70;99.90;;;;;;4926836;29;20502;-73
2022/09/04 06:55:02;;;;;;;2.50;1.80;;;15.80;99.90;;;;;;4924209;29;20849;-73
2022/09/04 06:58:13;;;;;;;2.47;1.83;;;15.90;99.90;;;;;;4925057;29;20491;-72
2022/09/04 07:01:07;;;;;;;1.90;1.70;;;15.90;99.90;;;;;;4919760;29;20447;-74
2022/09/04 07:04:06;;;;;;;2.77;1.73;;;15.90;99.90;;;;;;4916191;29;20463;-73
2022/09/04 07:07:02;;;;;;;2.07;1.87;;;16.00;99.90;;;;;;4926870;29;20563;-74
2022/09/04 07:09:56;;;;;;;2.33;1.70;;;16.10;99.90;;;;;;4919061;29;20975;-74
2022/09/04 07:13:37;;;;;;;2.50;1.73;;;16.10;99.90;;;;;;4921896;28;20471;-73
2022/09/04 07:16:49;;;;;;;1.93;1.83;;;16.20;99.90;;;;;;4918483;28;20504;-72
2022/09/04 07:20:00;;;;;;;2.60;2.13;;;16.30;99.90;;;;;;4924164;29;20652;-71
2022/09/04 07:23:16;;;;;;;2.50;2.30;;;16.40;99.90;;;;;;4919216;29;20558;-72
2022/09/04 07:26:17;;;;;;;2.50;1.87;;;16.50;99.90;;;;;;4923512;29;20560;-72
2022/09/04 07:29:28;;;;;;;4.10;2.30;;;16.50;99.90;;;;;;4923882;29;20995;-71
2022/09/04 07:32:22;;;;;;;2.73;2.27;;;16.60;99.90;;;;;;4922089;29;20460;-73
2022/09/04 07:35:19;;;;;;;4.27;2.93;;;16.70;99.90;;;;;;4927931;28;20480;-73
2022/09/04 07:38:17;;;;;;;4.90;3.33;;;16.70;99.90;;;;;;4921876;29;20487;-73
2022/09/04 07:41:12;;;;;;;4.27;2.27;;;16.80;99.90;;;;;;4915415;29;20510;-74
2022/09/04 07:44:09;;;;;;;2.33;2.13;;;16.90;99.90;;;;;;4915006;29;20459;-74
2022/09/04 07:47:12;;;;;;;3.00;2.80;;;16.90;99.90;;;;;;4913329;29;20483;-76
2022/09/04 07:50:09;;;;;;;2.87;2.50;;;17.00;99.90;;;;;;4916303;29;20455;-74
2022/09/04 07:53:17;;;;;;;2.80;2.60;;;17.00;99.90;;;;;;4922443;29;20448;-74
2022/09/04 07:56:16;;;;;;;3.20;2.67;;;17.10;99.90;;;;;;4923755;29;20488;-74
2022/09/04 07:59:27;;;;;;;3.60;3.17;;;17.20;99.90;;;;;;4929298;29;20501;-73
2022/09/04 08:02:31;;;;;;;3.40;3.10;;;17.30;99.90;;;;;;4929324;29;20500;-74
2022/09/04 08:05:23;;;;;;;3.07;2.77;;;17.40;99.90;;;;;;4933542;28;21037;-74
2022/09/04 08:08:53;;;;;;;3.23;2.60;;;17.40;99.90;;;;;;4929297;29;20838;-74
2022/09/04 08:12:24;;;;;;;2.90;2.70;;;17.50;99.90;;;;;;4931918;29;20583;-74
2022/09/04 08:15:20;;;;;;;3.37;3.00;;;17.60;99.90;;;;;;4926474;29;21026;-73
2022/09/04 08:18:28;;;;;;;3.77;3.30;;;17.70;99.90;;;;;;4926758;29;20473;-74
2022/09/04 08:21:25;;;;;;;3.07;2.80;;;17.80;99.90;;;;;;4932144;28;21304;-73
2022/09/04 08:24:31;;;;;;;3.83;3.53;;;17.80;99.90;;;;;;4927983;29;20452;-74
2022/09/04 08:27:32;;;;;;;3.60;3.30;;;17.90;99.90;;;;;;4927654;29;21086;-75
2022/09/04 08:30:23;;;;;;;3.47;3.07;;;18.00;99.90;;;;;;4924691;29;20467;-74
2022/09/04 08:33:36;;;;;;;3.50;3.20;;;18.10;99.90;;;;;;4925998;29;20460;-74
2022/09/04 08:36:32;;;;;;;4.80;3.43;;;18.20;99.90;;;;;;4928706;29;20494;-74
2022/09/04 08:39:34;;;;;;;4.00;3.60;;;18.30;99.90;;;;;;4928638;29;20541;-74
2022/09/04 08:42:52;;;;;;;3.70;3.40;;;18.30;99.90;;;;;;4920035;29;20474;-74
2022/09/04 08:46:23;;;;;;;4.43;3.40;;;18.40;99.90;;;;;;4918372;28;20523;-75
2022/09/04 08:50:01;;;;;;;4.00;3.63;;;18.50;99.90;;;;;;4914185;29;20848;-74
2022/09/04 08:53:40;;;;;;;3.53;3.23;;;18.60;99.90;;;;;;4929014;29;20560;-74
2022/09/04 08:56:37;;;;;;;3.63;3.33;;;18.70;99.90;;;;;;4900605;29;20491;-74
2022/09/04 08:59:54;;;;;;;4.10;3.80;;;18.90;99.90;;;;;;4928865;29;20468;-74
2022/09/04 09:03:16;;;;;;;4.17;3.77;;;18.90;99.90;;;;;;4929188;29;20546;-74
2022/09/04 09:06:34;;;;;;;5.67;4.07;;;19.00;99.90;;;;;;4929968;29;20563;-74
2022/09/04 09:10:02;;;;;;;4.23;3.83;;;19.10;99.90;;;;;;4931052;29;21099;-74
2022/09/04 09:13:24;;;;;;;4.13;3.43;;;19.20;99.90;;;;;;4929419;29;20464;-74
2022/09/04 09:16:37;;;;;;;4.10;3.80;;;19.30;99.90;;;;;;4930292;29;20565;-74
2022/09/04 09:19:43;;;;;;;5.77;4.07;;;19.40;99.90;;;;;;4928422;29;20893;-74
2022/09/04 09:23:08;;;;;;;4.33;3.90;;;19.50;99.90;;;;;;4926717;29;20464;-74
2022/09/04 09:26:18;;;;;;;4.10;3.80;;;19.60;99.90;;;;;;4931221;29;20452;-75
2022/09/04 09:29:40;;;;;;;4.17;3.87;;;19.70;99.90;;;;;;4925196;29;20452;-74
2022/09/04 09:33:04;;;;;;;4.17;3.87;;;19.80;99.90;;;;;;4927110;29;20578;-73
2022/09/04 09:36:25;;;;;;;4.10;3.70;;;20.00;99.90;;;;;;4931574;29;20647;-74
2022/09/04 09:39:46;;;;;;;3.80;3.43;;;20.00;99.90;;;;;;4930219;29;20491;-73
2022/09/04 09:43:08;;;;;;;3.77;3.33;;;20.20;99.90;;;;;;4928179;29;20467;-74
2022/09/04 09:46:27;;;;;;;5.70;4.03;;;20.30;99.90;;;;;;4928677;29;22476;-74
2022/09/04 09:49:42;;;;;;;3.70;3.40;;;20.40;99.90;;;;;;4932782;28;20456;-74
2022/09/04 09:53:08;;;;;;;3.50;3.20;;;20.50;99.90;;;;;;4929565;29;20615;-73
2022/09/04 09:56:41;;;;;;;4.20;3.90;;;20.60;99.90;;;;;;4927097;29;20583;-74
2022/09/04 10:00:10;;;;;;;3.60;3.40;;;20.70;99.90;;;;;;4926664;29;20448;-76
2022/09/04 10:03:33;;;;;;;4.30;3.40;;;20.80;99.90;;;;;;4928496;29;20954;-74
2022/09/04 10:07:00;;;;;;;3.33;3.03;;;20.90;99.90;;;;;;4929732;28;21592;-74
2022/09/04 10:10:14;;;;;;;3.73;3.43;;;21.00;99.90;;;;;;4930946;29;21014;-74
2022/09/04 10:13:24;;;;;;;3.53;3.30;;;21.10;99.90;;;;;;4929485;29;20491;-74
2022/09/04 10:16:47;;;;;;;3.70;3.40;;;21.20;99.90;;;;;;4913378;29;20494;-74
2022/09/04 10:20:07;;;;;;;3.87;3.57;;;21.20;99.90;;;;;;4930478;29;20495;-74
2022/09/04 10:23:24;;;;;;;3.20;3.00;;;21.30;99.90;;;;;;4928556;29;20534;-74
2022/09/04 10:26:38;;;;;;;3.27;2.97;;;21.40;99.90;;;;;;4922609;29;20563;-75
2022/09/04 10:29:50;;;;;;;4.93;3.10;;;21.50;99.90;;;;;;4922384;29;20582;-73
2022/09/04 10:33:13;;;;;;;3.63;3.43;;;21.60;99.90;;;;;;4927476;28;20460;-74
2022/09/04 10:36:18;;;;;;;3.60;3.30;;;21.70;99.90;;;;;;4926742;29;20522;-74
2022/09/04 10:42:40;;;;;;;3.70;3.30;;;21.90;99.90;;;;;;4926977;28;20600;-74
2022/09/04 10:45:34;;;;;;;3.43;3.20;;;22.10;99.90;;;;;;4921473;28;21130;-74
2022/09/04 10:48:52;;;;;;;3.70;3.40;;;22.10;99.90;;;;;;4925374;29;20462;-72
2022/09/04 10:52:05;;;;;;;3.57;3.27;;;22.20;99.90;;;;;;4929701;28;20495;-74
2022/09/04 10:55:31;;;;;;;3.60;3.30;;;22.30;99.90;;;;;;4929169;29;20460;-72
2022/09/04 10:58:52;;;;;;;3.43;3.17;;;22.40;99.90;;;;;;4916227;29;20464;-73
2022/09/04 11:02:23;;;;;;;3.60;3.30;;;22.50;99.90;;;;;;4929257;29;20456;-71
2022/09/04 11:05:40;;;;;;;3.53;3.20;;;22.70;99.90;;;;;;4928206;29;20463;-71
2022/09/04 11:08:57;;;;;;;3.70;3.23;;;22.80;99.90;;;;;;4932095;29;20483;-72
2022/09/04 11:12:08;;;;;;;3.70;3.37;;;22.80;99.90;;;;;;4928290;29;20517;-73
2022/09/04 11:15:18;;;;;;;5.13;3.07;;;23.00;99.90;;;;;;4928130;29;20456;-72
2022/09/04 11:18:40;;;;;;;3.70;3.40;;;23.10;99.90;;;;;;4931788;29;21059;-71
2022/09/04 11:22:07;;;;;;;3.43;3.10;;;23.20;99.90;;;;;;4929429;29;20983;-72
2022/09/04 11:25:46;;;;;;;3.83;2.97;;;23.30;99.90;;;;;;4932782;29;20493;-72
2022/09/04 11:28:50;;;;;;;3.37;3.17;;;23.50;99.90;;;;;;4931891;29;20456;-71
2022/09/04 11:32:02;;;;;;;4.00;3.70;;;23.60;99.90;;;;;;4930529;29;20947;-72
2022/09/04 11:35:12;;;;;;;3.30;3.10;;;23.80;99.90;;;;;;4929841;29;21009;-72
2022/09/04 11:38:19;;;;;;;3.30;3.10;;;23.90;99.90;;;;;;4926801;29;20886;-72
2022/09/04 11:41:38;;;;;;;3.37;3.07;;;24.00;99.90;;;;;;4931261;28;20548;-71
2022/09/04 11:44:51;;;;;;;3.13;2.93;;;24.20;99.90;;;;;;4928131;29;20534;-73
2022/09/04 11:48:20;;;;;;;3.17;2.97;;;24.30;99.90;;;;;;4929489;29;20534;-72
2022/09/04 11:51:21;;;;;;;3.53;3.27;;;24.40;99.90;;;;;;4930263;29;20492;-71
2022/09/04 11:54:35;;;;;;;3.40;3.10;;;24.50;99.90;;;;;;4931760;29;21071;-71
2022/09/04 11:57:35;;;;;;;3.60;3.40;;;24.60;99.90;;;;;;4904467;29;20484;-70
2022/09/04 12:00:24;;;;;;;3.77;3.47;;;24.70;99.90;;;;;;4908452;29;20468;-71
2022/09/04 12:03:48;;;;;;;3.50;3.30;;;24.80;99.90;;;;;;4918178;29;20468;-71
2022/09/04 12:06:54;;;;;;;3.60;3.30;;;24.90;99.90;;;;;;4921045;29;20846;-74
2022/09/04 12:10:16;;;;;;;3.73;3.47;;;24.90;99.90;;;;;;4917665;29;20464;-71
2022/09/04 12:13:29;;;;;;;3.87;3.57;;;25.00;99.90;;;;;;4924653;29;20512;-71
2022/09/04 12:16:47;;;;;;;3.10;2.90;;;25.20;99.90;;;;;;4914527;29;20502;-72
2022/09/04 12:20:07;;;;;;;3.40;3.20;;;25.30;99.90;;;;;;4919897;29;20469;-72
2022/09/04 12:23:12;;;;;;;3.70;3.40;;;25.50;99.90;;;;;;4890653;29;20583;-73
2022/09/04 12:33:26;;;;;;;4.17;3.77;;;25.90;99.90;;;;;;4890196;29;20485;-70
2022/09/04 12:36:58;;;;;;;3.87;3.57;;;25.90;99.90;;;;;;4898973;29;20599;-72
2022/09/04 12:40:16;;;;;;;3.60;3.30;;;25.90;99.90;;;;;;4891484;29;20519;-72
2022/09/04 12:43:21;;;;;;;3.73;3.43;;;26.10;99.90;;;;;;4901360;29;20584;-73
2022/09/04 12:46:23;;;;;;;3.90;3.60;;;26.30;99.90;;;;;;4904374;29;20445;-72
2022/09/04 12:49:40;;;;;;;3.90;3.50;;;26.40;99.90;;;;;;4896769;29;20948;-73
2022/09/04 12:52:40;;;;;;;3.37;3.17;;;26.50;99.90;;;;;;4900678;29;20493;-73
2022/09/04 12:55:36;;;;;;;8.10;5.60;;;26.70;99.90;;;;;;4899931;29;20480;-71
2022/09/04 12:58:33;;;;;;;4.00;3.60;;;27.00;99.90;;;;;;4901401;29;20838;-72
2022/09/04 13:01:35;;;;;;;4.20;3.73;;;27.10;99.90;;;;;;4885683;29;20547;-72
2022/09/04 13:04:38;;;;;;;4.50;3.63;;;27.20;99.90;;;;;;4899659;29;20552;-72
2022/09/04 13:07:41;;;;;;;4.00;3.70;;;27.50;99.90;;;;;;4904451;29;20548;-72
2022/09/04 13:10:41;;;;;;;4.77;4.27;;;27.70;99.90;;;;;;4900704;29;20583;-72
2022/09/04 13:13:40;;;;;;;5.43;4.97;;;27.90;99.90;;;;;;4883025;29;20570;-72
2022/09/04 13:16:38;;;;;;;3.30;3.07;;;27.90;99.90;;;;;;4874596;29;20501;-72
2022/09/04 13:19:35;;;;;;;3.67;3.37;;;28.00;99.90;;;;;;4884512;29;20952;-72
2022/09/04 13:22:30;;;;;;;3.60;3.40;;;28.20;99.90;;;;;;4872129;29;20493;-73
2022/09/04 13:25:36;;;;;;;3.70;3.40;;;28.30;99.90;;;;;;4875815;29;20518;-72
2022/09/04 13:28:34;;;;;;;4.60;3.53;;;28.50;99.90;;;;;;4877942;29;20458;-73
2022/09/04 13:31:42;;;;;;;3.60;3.30;;;28.60;99.90;;;;;;4859525;29;20532;-73
2022/09/04 13:34:43;;;;;;;5.10;3.20;;;29.10;99.90;;;;;;4873802;29;20466;-72
2022/09/04 13:37:44;;;;;;;3.63;3.20;;;29.30;99.90;;;;;;4878247;29;20493;-71
2022/09/04 13:41:22;;;;;;;2.83;2.63;;;29.90;99.90;;;;;;4880019;29;20574;-73
2022/09/04 13:44:39;;;;;;;3.20;3.00;;;30.40;98.30;;;;;;4873280;29;20489;-74
2022/09/04 13:47:35;;;;;;;3.27;3.07;;;30.90;97.40;;;;;;4879428;29;20462;-73
2022/09/04 13:50:31;;;;;;;2.70;2.60;;;31.40;96.10;;;;;;4872551;29;20497;-71
2022/09/04 13:53:23;;;;;;;3.03;2.83;;;31.60;94.00;;;;;;4875241;29;20849;-71
2022/09/04 13:56:18;;;;;;;3.03;2.73;;;31.50;93.90;;;;;;4877182;29;20557;-73
2022/09/04 13:59:10;;;;;;;3.30;3.10;;;31.40;92.90;;;;;;4873533;29;20477;-74
2022/09/04 14:02:03;;;;;;;3.97;2.90;;;31.30;92.20;;;;;;4871688;29;20478;-73
2022/09/04 14:04:56;;;;;;;3.30;3.07;;;30.90;92.00;;;;;;4877203;29;20474;-72
2022/09/04 14:07:48;;;;;;;3.00;2.80;;;30.70;92.30;;;;;;4879692;29;20500;-73
2022/09/04 14:10:57;;;;;;;2.87;2.67;;;30.10;91.90;;;;;;4869584;29;20573;-72
2022/09/04 14:14:10;;;;;;;3.57;3.27;;;29.70;92.10;;;;;;4895666;29;20484;-72
2022/09/04 14:16:58;;;;;;;3.77;3.47;;;29.40;91.80;;;;;;4895334;29;20480;-73
2022/09/04 14:19:54;;;;;;;3.33;3.03;;;29.10;91.40;;;;;;4895400;29;20464;-72
2022/09/04 14:22:57;;;;;;;3.27;2.97;;;28.80;91.80;;;;;;4896103;29;20496;-72
2022/09/04 14:25:52;;;;;;;3.13;2.93;;;28.70;92.40;;;;;;4887045;29;20504;-72
2022/09/04 14:28:50;;;;;;;2.63;2.40;;;28.60;91.80;;;;;;4897112;29;20973;-73
2022/09/04 14:31:46;;;;;;;2.87;2.43;;;28.40;92.10;;;;;;4895557;29;20489;-71
2022/09/04 14:34:51;;;;;;;3.07;2.87;;;28.20;93.00;;;;;;4901240;29;20473;-71
2022/09/04 14:37:58;;;;;;;2.70;2.50;;;28.20;92.30;;;;;;4888248;29;21000;-73
2022/09/04 14:40:56;;;;;;;4.20;3.07;;;28.20;91.80;;;;;;4882342;29;20468;-73
2022/09/04 14:43:58;;;;;;;5.63;4.60;;;28.00;92.10;;;;;;4894522;29;20489;-73
2022/09/04 14:47:02;;;;;;;3.27;2.97;;;28.00;92.20;;;;;;4889608;29;20893;-73
2022/09/04 14:49:54;;;;;;;3.13;2.73;;;28.10;92.90;;;;;;4891282;29;20501;-72
2022/09/04 14:52:47;;;;;;;3.00;2.80;;;28.30;92.80;;;;;;4878910;29;20493;-72
2022/09/04 14:55:42;;;;;;;3.23;2.77;;;28.20;92.40;;;;;;4866901;29;20432;-73
2022/09/04 14:58:35;;;;;;;3.10;2.90;;;28.30;92.30;;;;;;4865053;29;20951;-74
2022/09/04 15:01:25;;;;;;;3.40;2.90;;;28.40;92.00;;;;;;4877212;29;20500;-73
2022/09/04 15:04:23;;;;;;;3.10;2.90;;;28.40;91.40;;;;;;4878005;29;20458;-74
2022/09/04 15:07:29;;;;;;;3.17;2.97;;;28.10;91.30;;;;;;4881236;29;20494;-73
2022/09/04 15:10:23;;;;;;;3.87;2.90;;;27.90;91.80;;;;;;4873736;29;20485;-72
2022/09/04 15:13:37;;;;;;;3.53;2.70;;;27.80;92.20;;;;;;4874329;29;20485;-72
2022/09/04 15:16:43;;;;;;;3.40;3.10;;;27.50;92.30;;;;;;4873227;29;20826;-72
2022/09/04 15:19:44;;;;;;;3.33;3.03;;;27.40;91.90;;;;;;4870973;29;20947;-72
2022/09/04 15:22:38;;;;;;;3.10;2.80;;;27.20;92.70;;;;;;4869387;29;20568;-72
2022/09/04 15:25:45;;;;;;;3.50;3.20;;;27.10;92.80;;;;;;4877603;29;20487;-72
2022/09/04 15:28:53;;;;;;;3.33;3.03;;;27.00;92.50;;;;;;4871796;29;20463;-73
2022/09/04 15:31:43;;;;;;;3.30;3.00;;;26.90;92.50;;;;;;4872784;29;20490;-73
2022/09/04 15:34:32;;;;;;;2.73;2.57;;;26.80;92.70;;;;;;4877019;29;20464;-72
2022/09/04 15:37:25;;;;;;;3.13;2.93;;;26.80;92.70;;;;;;4875744;29;20600;-73
2022/09/04 15:40:23;;;;;;;3.50;3.20;;;26.70;93.20;;;;;;4866059;29;21201;-72
2022/09/04 15:43:19;;;;;;;3.43;3.13;;;26.70;93.50;;;;;;4870200;29;20493;-73
2022/09/04 15:46:20;;;;;;;3.40;3.13;;;26.50;93.40;;;;;;4874890;29;20524;-73
2022/09/04 15:49:24;;;;;;;3.20;3.00;;;26.40;93.50;;;;;;4876784;29;20457;-73
2022/09/04 15:52:30;;;;;;;3.60;3.30;;;26.30;93.50;;;;;;4877643;29;20648;-72
2022/09/04 15:55:24;;;;;;;8.53;3.23;;;26.20;94.00;;;;;;4867556;29;20544;-73
2022/09/04 15:58:18;;;;;;;3.50;3.20;;;26.20;93.80;;;;;;4873949;29;20617;-74
2022/09/04 16:01:14;;;;;;;3.33;3.13;;;26.10;94.10;;;;;;4874138;29;20849;-72
2022/09/04 16:04:13;;;;;;;3.07;2.87;;;26.10;94.40;;;;;;4875514;29;20513;-74
2022/09/04 16:07:32;;;;;;;3.40;3.20;;;26.00;94.30;;;;;;4876345;29;20481;-72
2022/09/04 16:10:26;;;;;;;3.40;3.10;;;25.90;94.60;;;;;;4879562;29;20821;-72
2022/09/04 16:13:37;;;;;;;3.33;3.07;;;25.80;94.50;;;;;;4878568;29;20485;-71
2022/09/04 16:16:34;;;;;;;2.60;2.50;;;25.80;94.50;;;;;;4872057;29;20598;-71